Time;durP1;ratioP1;P1;durP2;ratioP2;P2;SDS_P1;SDS_P2;PMS_P1;PMS_P2;Temp;Humidity;BMP_temperature;BMP_pressure;BME280_temperature;BME280_humidity;BME280_pressure;Samples;Min_cycle;Max_cycle;Signal;HPM_P1;HPM_P2
2023/04/11 00:02:45;;;;;;;10.17;7.37;;;9.30;99.20;;;;;;10270276;29;20199;-79
2023/04/11 00:08:17;;;;;;;13.33;8.60;;;9.20;99.10;;;;;;10299230;28;20220;-76
2023/04/11 00:13:40;;;;;;;14.37;9.53;;;9.20;99.90;;;;;;10283955;29;20195;-78
2023/04/11 00:19:01;;;;;;;15.73;9.23;;;9.20;99.90;;;;;;10267321;29;20240;-76
2023/04/11 00:24:24;;;;;;;14.03;8.77;;;9.10;99.90;;;;;;10265414;29;20197;-77
2023/04/11 00:29:46;;;;;;;13.03;7.63;;;9.00;99.90;;;;;;10282897;29;20203;-76
2023/04/11 00:35:07;;;;;;;12.53;7.83;;;8.90;99.90;;;;;;10280926;28;20319;-76
2023/04/11 00:40:29;;;;;;;15.30;9.33;;;9.00;99.90;;;;;;10279714;29;20229;-77
2023/04/11 00:45:50;;;;;;;11.90;8.57;;;9.00;99.90;;;;;;10265474;29;20192;-77
2023/04/11 00:51:14;;;;;;;12.40;8.07;;;9.00;99.90;;;;;;10290957;28;20235;-77
2023/04/11 00:56:36;;;;;;;13.03;8.47;;;8.90;99.90;;;;;;10291793;28;20219;-76
2023/04/11 01:01:58;;;;;;;9.43;7.23;;;8.90;99.90;;;;;;10263775;28;20373;-78
2023/04/11 01:07:21;;;;;;;16.40;8.23;;;;;;;;;;10299697;28;20282;-78
2023/04/11 01:12:44;;;;;;;12.97;8.20;;;;;;;;;;10284785;28;20198;-76
2023/04/11 01:18:07;;;;;;;12.70;8.53;;;;;;;;;;10281218;28;20212;-76
2023/04/11 01:23:29;;;;;;;13.70;9.00;;;;;;;;;;10306115;28;20216;-76
2023/04/11 01:28:52;;;;;;;17.97;9.27;;;;;;;;;;10303206;28;20204;-76
2023/04/11 01:34:16;;;;;;;12.80;8.43;;;;;;;;;;10285340;28;20255;-76
2023/04/11 01:39:38;;;;;;;15.90;8.43;;;;;;;;;;10276898;28;20556;-76
2023/04/11 01:44:59;;;;;;;14.30;8.83;;;;;;;;;;10273215;29;20206;-76
2023/04/11 01:50:21;;;;;;;14.60;8.73;;;;;;;;;;10291698;28;20550;-76
2023/04/11 01:55:42;;;;;;;14.97;9.57;;;;;;;;;;10276801;29;20201;-77
2023/04/11 02:01:04;;;;;;;15.30;9.17;;;;;;;;;;10232966;29;20229;-83
2023/04/11 02:06:26;;;;;;;15.57;9.70;;;;;;;;;;10262453;29;20204;-78
2023/04/11 02:11:47;;;;;;;13.40;8.33;;;8.60;99.90;;;;;;10259281;29;20224;-78
2023/04/11 02:17:10;;;;;;;14.40;9.00;;;8.50;99.90;;;;;;10285814;28;20503;-76
2023/04/11 02:22:31;;;;;;;13.97;9.10;;;8.40;99.90;;;;;;10258089;29;20308;-76
2023/04/11 02:27:52;;;;;;;14.93;9.33;;;8.40;99.90;;;;;;10275622;29;20279;-77
2023/04/11 02:33:16;;;;;;;19.23;9.60;;;8.40;99.90;;;;;;10287370;28;20287;-78
2023/04/11 02:38:37;;;;;;;15.07;10.13;;;8.40;99.90;;;;;;10283670;28;20238;-76
2023/04/11 02:43:58;;;;;;;14.87;9.33;;;8.40;99.90;;;;;;10300438;28;20202;-76
2023/04/11 02:49:19;;;;;;;14.10;9.83;;;8.40;99.90;;;;;;10266779;29;20239;-76
2023/04/11 02:54:41;;;;;;;15.27;10.20;;;8.40;99.90;;;;;;10301077;28;20221;-77
2023/04/11 03:00:06;;;;;;;16.23;9.70;;;8.30;99.90;;;;;;10286363;28;20234;-75
2023/04/11 03:05:38;;;;;;;14.50;10.07;;;8.30;99.90;;;;;;10257496;29;20210;-77
2023/04/11 03:10:59;;;;;;;15.50;10.00;;;8.30;99.90;;;;;;10274620;29;20299;-82
2023/04/11 03:16:21;;;;;;;17.10;10.90;;;8.40;99.90;;;;;;10261430;28;20222;-76
2023/04/11 03:21:44;;;;;;;15.23;10.60;;;8.30;99.90;;;;;;10275530;28;20226;-77
2023/04/11 03:27:06;;;;;;;14.20;10.30;;;8.30;99.90;;;;;;10291938;28;20195;-77
2023/04/11 03:32:27;;;;;;;18.50;11.43;;;8.30;99.90;;;;;;10281884;28;20395;-78
2023/04/11 03:37:48;;;;;;;17.17;12.50;;;8.40;99.90;;;;;;10267073;29;20355;-77
2023/04/11 03:43:10;;;;;;;18.10;11.40;;;8.20;99.90;;;;;;10266942;29;20222;-76
2023/04/11 03:48:32;;;;;;;22.43;12.33;;;8.20;99.90;;;;;;10293397;28;20218;-77
2023/04/11 03:53:58;;;;;;;21.37;14.20;;;8.20;99.90;;;;;;10281503;28;20201;-76
2023/04/11 03:59:24;;;;;;;19.30;12.57;;;8.10;99.90;;;;;;10293453;28;20237;-78
2023/04/11 04:04:57;;;;;;;26.13;13.67;;;8.10;99.90;;;;;;10265716;29;20202;-76
2023/04/11 04:10:22;;;;;;;18.27;12.23;;;8.10;99.90;;;;;;10266352;29;20192;-76
2023/04/11 04:15:46;;;;;;;21.80;12.90;;;8.10;99.90;;;;;;10265427;29;20374;-76
2023/04/11 04:21:08;;;;;;;17.97;13.07;;;8.10;99.90;;;;;;10295489;28;20231;-76
2023/04/11 04:26:30;;;;;;;17.40;12.90;;;8.10;99.90;;;;;;10281733;28;20330;-76
2023/04/11 04:32:22;;;;;;;20.73;12.77;;;8.20;99.90;;;;;;10272033;29;20217;-78
2023/04/11 04:37:50;;;;;;;23.03;13.70;;;8.20;99.90;;;;;;10230439;29;20229;-78
2023/04/11 04:43:23;;;;;;;21.57;13.50;;;8.20;99.90;;;;;;10277269;29;20205;-77
2023/04/11 04:48:50;;;;;;;19.10;13.07;;;8.30;99.90;;;;;;10248376;29;20209;-76
2023/04/11 04:54:11;;;;;;;19.97;12.80;;;8.50;99.90;;;;;;10278472;28;20201;-76
2023/04/11 04:59:32;;;;;;;24.10;16.30;;;8.60;99.90;;;;;;10266463;29;20234;-76
2023/04/11 05:05:04;;;;;;;18.93;13.53;;;8.70;99.90;;;;;;10246023;29;20201;-77
2023/04/11 05:10:26;;;;;;;19.30;13.23;;;8.80;99.90;;;;;;10279781;28;20288;-77
2023/04/11 05:15:48;;;;;;;18.57;12.50;;;8.90;99.90;;;;;;10262984;28;20497;-76
2023/04/11 05:21:12;;;;;;;22.30;14.73;;;8.90;99.90;;;;;;10290745;28;20460;-76
2023/04/11 05:26:36;;;;;;;20.43;14.67;;;8.90;99.90;;;;;;10276954;28;20535;-76
2023/04/11 05:31:57;;;;;;;22.37;14.00;;;9.00;99.90;;;;;;10275836;28;20334;-75
2023/04/11 05:37:19;;;;;;;26.50;16.17;;;9.10;99.90;;;;;;10260459;29;20306;-79
2023/04/11 05:42:40;;;;;;;27.00;17.07;;;9.00;99.90;;;;;;10289878;28;20224;-79
2023/04/11 05:48:02;;;;;;;33.73;20.07;;;9.00;99.90;;;;;;10286007;28;20215;-80
2023/04/11 05:53:24;;;;;;;29.37;17.10;;;9.10;99.90;;;;;;10262391;29;20201;-77
2023/04/11 05:58:45;;;;;;;24.40;17.33;;;9.30;99.90;;;;;;10289052;28;20212;-77
2023/04/11 06:04:06;;;;;;;29.23;18.10;;;9.70;99.90;;;;;;10270874;29;20479;-84
2023/04/11 06:09:29;;;;;;;34.70;18.93;;;9.80;99.90;;;;;;10284080;29;20210;-78
2023/04/11 06:14:51;;;;;;;28.67;17.67;;;10.10;99.90;;;;;;10273799;29;20280;-78
2023/04/11 06:20:13;;;;;;;26.43;17.13;;;10.20;99.90;;;;;;10280250;28;20610;-77
2023/04/11 06:25:34;;;;;;;24.70;15.33;;;10.50;99.90;;;;;;10277856;29;20200;-77
2023/04/11 06:30:55;;;;;;;21.03;14.77;;;11.10;99.90;;;;;;10276732;29;20240;-77
2023/04/11 06:36:16;;;;;;;19.40;14.07;;;11.40;99.90;;;;;;10276189;29;20233;-78
2023/04/11 06:41:37;;;;;;;19.37;13.80;;;11.40;99.90;;;;;;10276175;29;20304;-76
2023/04/11 06:46:58;;;;;;;23.00;14.03;;;11.50;99.90;;;;;;10275049;29;20233;-83
2023/04/11 06:52:19;;;;;;;23.47;15.73;;;11.70;99.90;;;;;;10259025;29;20206;-77
2023/04/11 06:57:42;;;;;;;23.47;14.73;;;11.90;99.90;;;;;;10258372;29;20202;-77
2023/04/11 07:03:06;;;;;;;19.83;13.93;;;12.20;99.90;;;;;;10259060;29;20230;-78
2023/04/11 07:08:28;;;;;;;17.27;12.43;;;12.50;99.90;;;;;;10210962;28;20584;-81
2023/04/11 07:13:49;;;;;;;18.10;9.93;;;13.00;99.90;;;;;;10283515;28;20198;-83
2023/04/11 07:19:11;;;;;;;16.35;8.98;;;13.40;99.90;;;;;;10244501;29;20210;-79
2023/04/11 07:24:32;;;;;;;11.23;8.18;;;13.80;99.90;;;;;;10283415;28;20211;-77
2023/04/11 07:29:53;;;;;;;10.48;7.57;;;14.10;99.90;;;;;;10257446;29;20216;-77
2023/04/11 07:35:15;;;;;;;10.23;7.18;;;14.20;99.90;;;;;;10228650;29;20231;-78
2023/04/11 07:40:36;;;;;;;12.13;6.65;;;14.30;99.90;;;;;;10256311;29;20229;-78
2023/04/11 07:45:58;;;;;;;10.57;6.35;;;14.40;99.90;;;;;;10279679;28;20212;-78
2023/04/11 07:51:19;;;;;;;9.85;7.15;;;14.30;99.90;;;;;;10251375;29;20507;-81
2023/04/11 07:56:40;;;;;;;9.82;6.40;;;14.50;99.80;;;;;;10269052;29;20718;-79
2023/04/11 08:02:03;;;;;;;13.38;6.13;;;15.00;97.90;;;;;;10268203;28;20236;-81
2023/04/11 08:07:23;;;;;;;9.50;6.00;;;15.30;91.30;;;;;;10267325;29;20284;-79
2023/04/11 08:12:45;;;;;;;9.55;6.10;;;15.70;72.10;;;;;;10285286;28;20262;-78
2023/04/11 08:18:06;;;;;;;10.13;6.43;;;15.60;71.50;;;;;;10288657;28;20421;-79
2023/04/11 08:23:30;;;;;;;8.90;6.50;;;16.00;67.70;;;;;;10274534;29;20237;-78
2023/04/11 08:28:51;;;;;;;11.52;7.07;;;16.60;61.90;;;;;;10277805;28;20243;-84
2023/04/11 08:34:13;;;;;;;13.10;6.95;;;16.90;55.60;;;;;;10267561;29;20253;-82
2023/04/11 08:39:34;;;;;;;22.83;7.13;;;16.90;55.80;;;;;;10274675;29;20428;-81
2023/04/11 08:44:57;;;;;;;17.05;7.50;;;17.10;53.40;;;;;;10271853;29;20220;-79
2023/04/11 08:50:18;;;;;;;10.10;6.40;;;17.00;50.40;;;;;;10275536;28;20210;-87
2023/04/11 08:55:46;;;;;;;13.40;7.30;;;17.30;51.10;;;;;;10273078;28;20209;-78
2023/04/11 09:01:31;;;;;;;15.73;8.55;;;17.10;48.70;;;;;;10254687;29;20242;-81
2023/04/11 09:06:57;;;;;;;10.20;6.00;;;17.60;57.90;;;;;;10254256;29;20717;-79
2023/04/11 09:12:28;;;;;;;14.15;6.80;;;17.90;50.10;;;;;;10285206;28;20230;-79
2023/04/11 09:17:49;;;;;;;11.93;7.10;;;18.20;37.90;;;;;;10285103;28;20537;-83
2023/04/11 09:23:21;;;;;;;12.00;6.85;;;17.90;39.10;;;;;;10255288;28;20439;-79
2023/04/11 09:28:52;;;;;;;11.88;7.28;;;17.50;41.40;;;;;;10257170;29;20211;-82
2023/04/11 09:34:22;;;;;;;11.50;5.75;;;17.30;42.20;;;;;;10240540;29;20549;-82
2023/04/11 09:39:44;;;;;;;9.98;5.50;;;17.00;41.40;;;;;;10284182;28;20444;-79
2023/04/11 09:45:14;;;;;;;8.95;5.95;;;16.90;42.70;;;;;;10286121;28;20217;-81
2023/04/11 09:50:37;;;;;;;9.15;4.75;;;17.00;42.70;;;;;;10268278;29;20233;-79
2023/04/11 09:55:58;;;;;;;33.78;19.77;;;17.00;42.90;;;;;;10270789;29;20206;-82
2023/04/11 10:01:20;;;;;;;9.13;5.28;;;16.90;43.30;;;;;;10255835;28;20240;-83
2023/04/11 10:07:17;;;;;;;7.45;4.97;;;16.70;45.30;;;;;;10243708;29;20408;-82
2023/04/11 10:12:38;;;;;;;15.40;4.57;;;16.70;42.90;;;;;;10158630;29;20231;-80
2023/04/11 10:18:12;;;;;;;10.00;5.30;;;16.70;42.20;;;;;;10186420;29;20535;-82
2023/04/11 10:24:11;;;;;;;8.90;3.85;;;16.80;40.40;;;;;;10187763;29;20321;-78
2023/04/11 10:29:46;;;;;;;8.07;4.30;;;16.60;41.30;;;;;;10185541;29;20634;-78
2023/04/11 10:35:20;;;;;;;6.22;4.05;;;16.60;42.10;;;;;;10147728;29;20247;-81
2023/04/11 10:41:15;;;;;;;8.98;4.63;;;16.70;42.50;;;;;;10132210;29;20270;-80
2023/04/11 10:46:55;;;;;;;9.93;4.30;;;16.60;40.60;;;;;;10235546;29;20280;-82
2023/04/11 10:52:21;;;;;;;8.45;6.13;;;17.00;40.30;;;;;;10268158;29;20222;-78
2023/04/11 10:58:07;;;;;;;7.38;4.53;;;17.60;37.40;;;;;;10265575;29;20275;-78
2023/04/11 11:03:30;;;;;;;6.45;4.13;;;18.00;36.90;;;;;;10238780;29;20238;-83
2023/04/11 11:08:51;;;;;;;8.45;5.20;;;18.10;34.40;;;;;;10256431;28;20556;-87
2023/04/11 11:14:28;;;;;;;11.75;6.30;;;17.70;34.60;;;;;;10249909;29;20289;-82
2023/04/11 11:19:50;;;;;;;13.52;6.18;;;17.20;35.10;;;;;;10228177;29;20226;-83
2023/04/11 11:25:11;;;;;;;9.55;5.38;;;17.10;35.60;;;;;;10229378;29;20225;-78
2023/04/11 11:30:35;;;;;;;10.70;6.07;;;17.10;34.30;;;;;;10229799;28;21169;-80
2023/04/11 11:35:59;;;;;;;8.80;5.72;;;17.80;32.90;;;;;;10308778;28;20267;-82
2023/04/11 11:41:20;;;;;;;7.68;5.03;;;17.90;30.00;;;;;;10293277;28;20226;-83
2023/04/11 11:46:59;;;;;;;17.13;5.57;;;18.60;29.80;;;;;;10265184;28;20234;-78
2023/04/11 11:52:31;;;;;;;12.25;7.35;;;18.90;28.00;;;;;;10289051;28;20207;-81
2023/04/11 11:57:53;;;;;;;10.15;6.00;;;18.30;28.10;;;;;;10274073;29;20415;-78
2023/04/11 12:03:19;;;;;;;18.17;11.27;;;17.90;28.60;;;;;;10259549;29;20234;-87
2023/04/11 12:08:43;;;;;;;9.55;6.50;;;17.40;29.00;;;;;;10276691;29;20490;-84
2023/04/11 12:14:05;;;;;;;7.95;6.75;;;17.60;28.60;;;;;;10301021;28;20222;-85
2023/04/11 12:19:26;;;;;;;10.00;5.40;;;18.00;29.40;;;;;;10272340;28;20222;-80
2023/04/11 12:24:51;;;;;;;14.60;5.93;;;17.60;28.40;;;;;;10275545;29;20209;-78
2023/04/11 12:30:14;;;;;;;11.57;5.65;;;17.20;29.30;;;;;;10286188;28;20213;-80
2023/04/11 12:35:35;;;;;;;7.13;5.15;;;17.10;29.40;;;;;;10274229;29;20241;-79
2023/04/11 12:40:55;;;;;;;9.20;5.40;;;17.40;29.90;;;;;;10274247;29;20268;-78
2023/04/11 12:46:28;;;;;;;26.75;11.43;;;17.30;29.60;;;;;;10257322;29;20516;-77
2023/04/11 12:51:50;;;;;;;7.63;6.03;;;17.30;29.30;;;;;;10273218;29;20195;-77
2023/04/11 12:57:12;;;;;;;14.90;10.70;;;17.50;29.40;;;;;;10271299;28;20206;-78
2023/04/11 13:02:34;;;;;;;30.38;16.20;;;17.30;28.40;;;;;;10258781;29;20435;-79
2023/04/11 13:07:58;;;;;;;13.80;7.63;;;17.10;29.60;;;;;;10285911;28;20288;-79
2023/04/11 13:13:57;;;;;;;27.95;12.13;;;17.10;30.40;;;;;;10272373;29;20253;-77
2023/04/11 13:19:19;;;;;;;26.55;13.98;;;16.70;29.70;;;;;;10272776;29;20209;-82
2023/04/11 13:24:40;;;;;;;17.55;9.15;;;16.40;30.90;;;;;;10241084;29;20508;-78
2023/04/11 13:30:03;;;;;;;35.67;18.08;;;16.40;32.10;;;;;;10284426;28;20204;-79
2023/04/11 13:35:25;;;;;;;15.50;8.27;;;16.40;32.10;;;;;;10271591;29;20268;-79
2023/04/11 13:40:47;;;;;;;12.32;5.90;;;16.60;31.70;;;;;;10271699;29;20228;-80
2023/04/11 13:46:08;;;;;;;7.13;5.47;;;16.70;31.20;;;;;;10275238;28;20200;-81
2023/04/11 13:51:30;;;;;;;6.57;5.03;;;16.60;32.00;;;;;;10266602;29;20384;-79
2023/04/11 13:56:51;;;;;;;10.52;5.15;;;16.50;31.70;;;;;;10270659;29;20229;-77
2023/04/11 14:02:12;;;;;;;15.02;9.02;;;16.40;32.10;;;;;;10271080;29;20240;-78
2023/04/11 14:07:33;;;;;;;11.38;6.63;;;16.20;32.60;;;;;;10256167;29;20280;-77
2023/04/11 14:12:54;;;;;;;6.35;5.32;;;16.10;36.30;;;;;;10284790;28;20504;-80
2023/04/11 14:18:15;;;;;;;11.88;6.97;;;15.90;48.90;;;;;;10252917;29;20283;-80
2023/04/11 14:23:36;;;;;;;14.38;8.18;;;15.80;52.90;;;;;;10256784;29;20235;-83
2023/04/11 14:28:57;;;;;;;8.90;6.57;;;15.60;57.60;;;;;;10284012;28;20512;-81
2023/04/11 14:34:18;;;;;;;16.35;10.27;;;15.40;87.50;;;;;;10268643;29;20224;-81
2023/04/11 14:39:39;;;;;;;20.73;10.43;;;15.00;99.90;;;;;;10273453;29;20271;-81
2023/04/11 14:45:00;;;;;;;16.23;12.00;;;14.60;99.90;;;;;;10216436;29;20206;-78
2023/04/11 14:50:22;;;;;;;15.30;10.02;;;14.00;99.90;;;;;;10219314;29;20212;-77
2023/04/11 14:55:43;;;;;;;13.05;7.60;;;;;;;;;;10268960;29;20255;-78
2023/04/11 15:01:04;;;;;;;11.05;8.85;;;13.40;99.90;;;;;;10251654;29;20313;-85
2023/04/11 15:06:26;;;;;;;14.63;10.38;;;13.50;99.90;;;;;;10282060;28;20200;-78
2023/04/11 15:11:47;;;;;;;16.55;10.98;;;13.60;99.90;;;;;;10268407;29;20546;-90
2023/04/11 15:17:08;;;;;;;21.35;14.70;;;13.40;99.90;;;;;;10268916;28;20214;-79
2023/04/11 15:22:30;;;;;;;40.63;26.05;;;13.30;99.90;;;;;;10261237;28;20257;-79
2023/04/11 15:27:51;;;;;;;28.48;16.65;;;13.00;99.90;;;;;;10281381;28;20204;-76
2023/04/11 15:33:12;;;;;;;22.30;13.38;;;12.80;99.90;;;;;;10250886;29;20209;-78
2023/04/11 15:38:34;;;;;;;19.33;10.13;;;12.50;99.90;;;;;;10242048;29;20256;-77
2023/04/11 15:43:56;;;;;;;8.67;6.13;;;12.30;99.90;;;;;;10280741;29;20236;-78
2023/04/11 15:49:17;;;;;;;8.00;6.25;;;12.00;99.90;;;;;;10293329;28;20206;-77
2023/04/11 15:54:38;;;;;;;19.55;12.30;;;12.00;99.90;;;;;;10282092;29;20203;-79
2023/04/11 16:00:00;;;;;;;22.80;14.25;;;12.00;99.90;;;;;;10280459;28;20264;-78
2023/04/11 16:05:30;;;;;;;20.45;15.15;;;12.10;99.90;;;;;;10280941;29;20217;-83
2023/04/11 16:10:51;;;;;;;37.38;25.00;;;12.10;99.90;;;;;;10279791;29;20202;-80
2023/04/11 16:16:13;;;;;;;19.27;12.88;;;12.10;99.90;;;;;;10275790;29;20199;-83
2023/04/11 16:21:34;;;;;;;16.40;11.32;;;11.80;99.90;;;;;;10279650;28;20242;-78
2023/04/11 16:26:56;;;;;;;12.63;8.27;;;11.70;99.90;;;;;;10265929;29;20374;-78
2023/04/11 16:32:17;;;;;;;12.63;10.77;;;11.40;99.90;;;;;;10290487;28;20238;-82
2023/04/11 16:37:38;;;;;;;19.00;11.68;;;11.20;99.90;;;;;;10292603;28;20261;-80
2023/04/11 16:42:59;;;;;;;23.27;15.23;;;11.20;99.90;;;;;;10304695;28;20239;-77
2023/04/11 16:48:20;;;;;;;16.40;10.77;;;11.20;99.90;;;;;;10294046;28;20220;-77
2023/04/11 16:53:41;;;;;;;12.27;8.87;;;11.20;99.90;;;;;;10278754;29;20387;-77
2023/04/11 16:59:03;;;;;;;10.27;8.73;;;11.20;99.90;;;;;;10278373;29;20233;-78
2023/04/11 17:04:24;;;;;;;10.50;8.13;;;11.20;99.90;;;;;;10278275;29;20230;-78
2023/04/11 17:09:47;;;;;;;22.23;14.10;;;11.30;99.90;;;;;;10290732;28;20202;-78
2023/04/11 17:15:10;;;;;;;33.93;22.77;;;11.30;99.90;;;;;;10278897;29;20199;-77
2023/04/11 17:20:30;;;;;;;24.53;18.77;;;10.90;99.90;;;;;;10289135;28;20523;-78
2023/04/11 17:25:52;;;;;;;24.20;17.00;;;10.60;99.90;;;;;;10285983;29;20202;-78
2023/04/11 17:31:15;;;;;;;26.67;16.60;;;10.50;99.90;;;;;;10278720;29;20308;-78
2023/04/11 17:36:41;;;;;;;28.90;16.80;;;10.40;99.90;;;;;;10260624;29;20250;-78
2023/04/11 17:42:02;;;;;;;22.03;14.40;;;10.20;99.90;;;;;;10263409;28;20459;-78
2023/04/11 17:47:25;;;;;;;19.33;12.90;;;10.20;99.90;;;;;;10268409;28;20200;-78
2023/04/11 17:52:47;;;;;;;20.40;14.10;;;10.10;99.90;;;;;;10262762;29;20569;-79
2023/04/11 17:58:08;;;;;;;23.37;14.57;;;9.80;99.90;;;;;;10275972;28;20194;-79
2023/04/11 18:03:33;;;;;;;17.03;11.77;;;9.80;99.90;;;;;;10275174;29;20267;-78
2023/04/11 18:08:55;;;;;;;22.77;12.00;;;9.70;99.90;;;;;;10288685;28;20391;-76
2023/04/11 18:14:16;;;;;;;36.47;23.27;;;9.60;99.90;;;;;;10238564;29;20235;-76
2023/04/11 18:19:37;;;;;;;22.23;11.83;;;9.50;99.90;;;;;;10287809;28;20295;-77
2023/04/11 18:25:00;;;;;;;18.53;10.47;;;9.30;99.90;;;;;;10275981;29;20268;-82
2023/04/11 18:30:22;;;;;;;25.70;15.60;;;9.20;99.90;;;;;;10273948;28;20204;-79
2023/04/11 18:35:43;;;;;;;15.70;11.27;;;9.20;99.90;;;;;;10275254;29;20518;-81
2023/04/11 18:41:04;;;;;;;25.17;17.80;;;9.10;99.90;;;;;;10274077;28;20275;-80
2023/04/11 18:46:26;;;;;;;21.93;11.53;;;9.00;99.90;;;;;;10258078;29;20200;-78
2023/04/11 18:51:48;;;;;;;15.90;8.33;;;9.00;99.90;;;;;;10274146;29;20251;-77
2023/04/11 18:57:09;;;;;;;8.60;5.27;;;8.80;99.90;;;;;;10273232;28;20201;-78
2023/04/11 19:02:31;;;;;;;13.47;7.37;;;8.70;99.90;;;;;;10259631;29;20254;-78
2023/04/11 19:07:52;;;;;;;11.07;5.40;;;8.70;99.90;;;;;;10274050;29;20200;-79
2023/04/11 19:13:23;;;;;;;9.63;6.27;;;8.60;99.90;;;;;;10244218;29;20260;-79
2023/04/11 19:18:44;;;;;;;9.30;6.43;;;8.60;99.90;;;;;;10273869;29;20214;-77
2023/04/11 19:24:06;;;;;;;16.20;10.43;;;8.60;99.90;;;;;;10274325;29;20230;-77
2023/04/11 19:29:27;;;;;;;19.93;11.40;;;8.70;99.90;;;;;;10264137;29;20243;-79
2023/04/11 19:34:48;;;;;;;20.50;11.77;;;8.60;99.90;;;;;;10249064;29;20264;-78
2023/04/11 19:40:10;;;;;;;14.07;9.90;;;8.60;99.90;;;;;;10264799;29;20210;-76
2023/04/11 19:45:31;;;;;;;14.07;8.10;;;8.70;99.90;;;;;;10286678;28;20201;-77
2023/04/11 19:50:52;;;;;;;18.37;9.87;;;8.80;99.90;;;;;;10273141;29;20252;-78
2023/04/11 19:56:15;;;;;;;19.17;9.27;;;8.80;99.90;;;;;;10254382;29;20204;-78
2023/04/11 20:01:36;;;;;;;12.90;7.50;;;8.70;99.90;;;;;;10259131;29;20557;-78
2023/04/11 20:06:59;;;;;;;11.23;7.13;;;8.70;99.90;;;;;;10260282;28;20212;-77
2023/04/11 20:12:20;;;;;;;15.57;8.40;;;8.80;99.90;;;;;;10263502;29;20206;-78
2023/04/11 20:17:41;;;;;;;16.27;9.23;;;8.80;99.90;;;;;;10292319;28;20208;-78
2023/04/11 20:23:05;;;;;;;11.13;7.83;;;8.70;99.90;;;;;;10280410;29;20221;-78
2023/04/11 20:28:26;;;;;;;10.97;6.73;;;8.80;99.90;;;;;;10267383;29;20284;-77
2023/04/11 20:33:47;;;;;;;8.83;5.70;;;8.80;99.90;;;;;;10269464;29;20224;-77
2023/04/11 20:39:08;;;;;;;10.17;6.57;;;8.80;99.90;;;;;;10278984;29;20231;-78
2023/04/11 20:44:29;;;;;;;8.03;5.23;;;8.80;99.90;;;;;;10279415;29;20218;-77
2023/04/11 20:49:54;;;;;;;25.70;18.47;;;8.80;99.90;;;;;;10239942;29;20200;-77
2023/04/11 20:55:15;;;;;;;34.33;25.07;;;8.80;99.90;;;;;;10247062;29;20403;-77
2023/04/11 21:00:37;;;;;;;15.63;10.40;;;8.90;99.90;;;;;;10290932;28;20216;-77
2023/04/11 21:05:58;;;;;;;10.63;6.63;;;8.90;99.90;;;;;;10258857;29;20219;-77
2023/04/11 21:11:20;;;;;;;14.60;5.87;;;8.90;99.90;;;;;;10268280;28;20194;-78
2023/04/11 21:16:41;;;;;;;9.17;6.13;;;8.90;99.90;;;;;;10278268;28;20201;-77
2023/04/11 21:22:02;;;;;;;7.07;5.23;;;8.90;99.90;;;;;;10259907;29;20275;-78
2023/04/11 21:27:24;;;;;;;8.70;5.57;;;8.80;99.90;;;;;;10289828;28;20199;-77
2023/04/11 21:32:45;;;;;;;14.27;7.30;;;8.90;99.90;;;;;;10274370;29;20498;-77
2023/04/11 21:38:07;;;;;;;13.10;8.60;;;8.90;99.90;;;;;;10276804;29;20260;-78
2023/04/11 21:43:29;;;;;;;11.17;6.70;;;8.90;99.90;;;;;;10240272;29;20220;-77
2023/04/11 21:48:50;;;;;;;9.13;5.53;;;8.80;99.90;;;;;;10272332;29;20201;-78
2023/04/11 21:54:11;;;;;;;7.83;5.20;;;8.80;99.90;;;;;;10276983;29;20200;-77
2023/04/11 21:59:34;;;;;;;6.83;4.53;;;8.80;99.90;;;;;;10284740;28;20206;-77
2023/04/11 22:04:55;;;;;;;5.17;4.03;;;8.80;99.90;;;;;;10275376;28;20269;-77
2023/04/11 22:10:21;;;;;;;7.73;4.20;;;8.70;99.90;;;;;;10306213;28;20196;-77
2023/04/11 22:15:44;;;;;;;8.23;4.47;;;8.60;99.90;;;;;;10277451;28;20214;-78
2023/04/11 22:21:08;;;;;;;8.90;5.20;;;8.70;99.90;;;;;;10271987;29;20225;-77
2023/04/11 22:26:33;;;;;;;7.10;4.57;;;8.60;99.90;;;;;;10294765;28;20520;-77
2023/04/11 22:31:58;;;;;;;6.73;4.00;;;8.70;99.90;;;;;;10276011;28;20299;-79
2023/04/11 22:37:19;;;;;;;9.50;5.30;;;8.70;99.90;;;;;;10257631;29;20243;-77
2023/04/11 22:42:40;;;;;;;10.30;5.53;;;8.70;99.90;;;;;;10303024;28;20222;-77
2023/04/11 22:48:03;;;;;;;7.77;5.03;;;8.70;99.90;;;;;;10274744;28;20206;-78
2023/04/11 22:53:24;;;;;;;8.43;5.30;;;8.60;99.90;;;;;;10274767;29;20206;-77
2023/04/11 22:58:45;;;;;;;8.90;5.00;;;8.70;99.90;;;;;;10257235;29;20209;-78
2023/04/11 23:04:07;;;;;;;6.70;4.47;;;8.70;99.90;;;;;;10274690;29;20436;-78
2023/04/11 23:09:28;;;;;;;5.43;4.20;;;8.70;99.90;;;;;;10300162;28;20222;-77
2023/04/11 23:14:49;;;;;;;7.77;4.40;;;8.70;99.90;;;;;;10274228;29;20209;-77
2023/04/11 23:20:11;;;;;;;5.77;4.53;;;8.60;99.90;;;;;;10274235;29;20199;-77
2023/04/11 23:25:37;;;;;;;6.23;4.20;;;8.60;99.90;;;;;;10286463;28;20227;-77
2023/04/11 23:31:00;;;;;;;4.50;3.50;;;8.60;99.90;;;;;;10274555;29;20407;-77
2023/04/11 23:36:21;;;;;;;5.00;3.80;;;8.50;99.90;;;;;;10273454;29;20248;-77
2023/04/11 23:41:43;;;;;;;5.67;3.70;;;8.50;99.90;;;;;;10280313;28;20276;-77
2023/04/11 23:47:04;;;;;;;6.60;3.70;;;8.50;99.90;;;;;;10312235;28;20251;-78
2023/04/11 23:52:25;;;;;;;4.17;3.10;;;8.50;99.90;;;;;;10281931;29;20245;-77
2023/04/11 23:57:46;;;;;;;10.27;6.50;;;8.50;99.90;;;;;;10273516;29;20484;-79
